Weather at Gdańsk Lech Wałęsa Airport

Public forecast

Using degrees Celsius for public forecast. Weather courtesy of forecast.io.

Current aviation weather report (METAR) for Gdańsk Lech Wałęsa Airport

Retrieved 2021/06/23 09:00 UTC (11 minutes ago):

EPGD 230900Z 30007KT 260V330 9999 FEW047 22/12 Q1018

Aviation forecast (TAF) for Gdańsk Lech Wałęsa Airport

Retrieved 2021/06/23 06:33 UTC (3 hours ago):

TAF TAF EPGD 230530Z 2306/2406 27005KT CAVOK PROB40 TEMPO 2400/2405 3000 BR